sensor_id;sensor_type;location;lat;lon;timestamp;pressure;altitude;pressure_sealevel;temperature;humidity
46111;BME280;31849;55.992;37.252;2022-10-22T00:04:42;99519.63;;;5.54;67.51
46111;BME280;31849;55.992;37.252;2022-10-22T00:09:52;99514.53;;;5.57;68.18
46111;BME280;31849;55.992;37.252;2022-10-22T00:14:56;99511.91;;;5.55;67.21
46111;BME280;31849;55.992;37.252;2022-10-22T00:19:59;99501.50;;;5.52;67.65
46111;BME280;31849;55.992;37.252;2022-10-22T00:25:05;99499.88;;;5.56;67.89
46111;BME280;31849;55.992;37.252;2022-10-22T00:30:10;99498.09;;;5.53;68.71
46111;BME280;31849;55.992;37.252;2022-10-22T00:35:14;99498.06;;;5.50;68.55
46111;BME280;31849;55.992;37.252;2022-10-22T00:40:19;99493.09;;;5.61;68.87
46111;BME280;31849;55.992;37.252;2022-10-22T00:45:23;99493.13;;;5.64;68.39
46111;BME280;31849;55.992;37.252;2022-10-22T00:50:30;99500.16;;;5.71;68.07
46111;BME280;31849;55.992;37.252;2022-10-22T00:55:37;99498.53;;;5.76;68.06
46111;BME280;31849;55.992;37.252;2022-10-22T01:00:41;99505.31;;;5.71;68.06
46111;BME280;31849;55.992;37.252;2022-10-22T01:05:52;99497.66;;;5.76;67.77
46111;BME280;31849;55.992;37.252;2022-10-22T01:11:07;99496.53;;;5.60;68.82
46111;BME280;31849;55.992;37.252;2022-10-22T01:16:18;99486.81;;;5.46;69.17
46111;BME280;31849;55.992;37.252;2022-10-22T01:21:28;99477.28;;;5.42;68.94
46111;BME280;31849;55.992;37.252;2022-10-22T01:26:43;99485.03;;;5.44;69.37
46111;BME280;31849;55.992;37.252;2022-10-22T01:31:58;99494.63;;;5.50;69.30
46111;BME280;31849;55.992;37.252;2022-10-22T01:37:02;99484.28;;;5.48;68.49
46111;BME280;31849;55.992;37.252;2022-10-22T01:42:06;99487.00;;;5.57;68.72
46111;BME280;31849;55.992;37.252;2022-10-22T01:47:31;99496.00;;;5.79;69.22
46111;BME280;31849;55.992;37.252;2022-10-22T01:52:51;99487.56;;;5.88;68.15
46111;BME280;31849;55.992;37.252;2022-10-22T01:58:07;99498.84;;;5.96;68.13
46111;BME280;31849;55.992;37.252;2022-10-22T02:03:23;99512.00;;;6.07;68.48
46111;BME280;31849;55.992;37.252;2022-10-22T02:08:31;99513.75;;;6.10;68.25
46111;BME280;31849;55.992;37.252;2022-10-22T02:13:41;99510.25;;;6.06;68.19
46111;BME280;31849;55.992;37.252;2022-10-22T02:18:50;99517.03;;;6.01;68.57
46111;BME280;31849;55.992;37.252;2022-10-22T02:23:56;99511.09;;;6.05;68.16
46111;BME280;31849;55.992;37.252;2022-10-22T02:29:05;99513.00;;;6.17;68.20
46111;BME280;31849;55.992;37.252;2022-10-22T02:34:17;99520.97;;;6.31;68.01
46111;BME280;31849;55.992;37.252;2022-10-22T02:39:22;99525.19;;;6.26;68.38
46111;BME280;31849;55.992;37.252;2022-10-22T02:44:25;99530.31;;;6.23;68.22
46111;BME280;31849;55.992;37.252;2022-10-22T02:49:30;99532.16;;;6.30;68.41
46111;BME280;31849;55.992;37.252;2022-10-22T02:54:34;99532.16;;;6.31;68.04
46111;BME280;31849;55.992;37.252;2022-10-22T02:59:37;99526.97;;;6.30;67.63
46111;BME280;31849;55.992;37.252;2022-10-22T03:04:42;99526.09;;;6.29;67.68
46111;BME280;31849;55.992;37.252;2022-10-22T03:09:45;99526.06;;;6.26;67.99
46111;BME280;31849;55.992;37.252;2022-10-22T03:14:49;99516.69;;;6.31;67.67
46111;BME280;31849;55.992;37.252;2022-10-22T03:19:54;99524.56;;;6.41;68.07
46111;BME280;31849;55.992;37.252;2022-10-22T03:24:59;99519.38;;;6.39;68.16
46111;BME280;31849;55.992;37.252;2022-10-22T03:30:07;99526.19;;;6.34;67.98
46111;BME280;31849;55.992;37.252;2022-10-22T03:35:12;99512.16;;;6.18;68.65
46111;BME280;31849;55.992;37.252;2022-10-22T03:40:16;99515.66;;;6.22;68.40
46111;BME280;31849;55.992;37.252;2022-10-22T03:45:20;99492.13;;;6.02;68.60
46111;BME280;31849;55.992;37.252;2022-10-22T03:50:25;99527.69;;;6.20;68.31
46111;BME280;31849;55.992;37.252;2022-10-22T03:55:28;99523.38;;;6.20;68.85
46111;BME280;31849;55.992;37.252;2022-10-22T04:00:33;99527.81;;;6.29;69.03
46111;BME280;31849;55.992;37.252;2022-10-22T04:05:38;99530.56;;;6.40;68.08
46111;BME280;31849;55.992;37.252;2022-10-22T04:10:41;99520.13;;;6.33;68.49
46111;BME280;31849;55.992;37.252;2022-10-22T04:15:45;99529.72;;;6.41;69.17
46111;BME280;31849;55.992;37.252;2022-10-22T04:20:51;99526.34;;;6.43;68.91
46111;BME280;31849;55.992;37.252;2022-10-22T04:25:57;99522.84;;;6.41;68.75
46111;BME280;31849;55.992;37.252;2022-10-22T04:31:06;99531.59;;;6.49;68.70
46111;BME280;31849;55.992;37.252;2022-10-22T04:36:13;99527.28;;;6.50;68.66
46111;BME280;31849;55.992;37.252;2022-10-22T04:41:18;99522.84;;;6.41;68.46
46111;BME280;31849;55.992;37.252;2022-10-22T04:46:22;99533.38;;;6.54;67.80
46111;BME280;31849;55.992;37.252;2022-10-22T04:51:27;99539.56;;;6.66;68.62
46111;BME280;31849;55.992;37.252;2022-10-22T04:56:31;99535.34;;;6.70;68.62
46111;BME280;31849;55.992;37.252;2022-10-22T05:01:36;99536.38;;;6.83;68.21
46111;BME280;31849;55.992;37.252;2022-10-22T05:06:45;99535.59;;;6.90;67.64
46111;BME280;31849;55.992;37.252;2022-10-22T05:11:49;99548.66;;;6.99;67.69
46111;BME280;31849;55.992;37.252;2022-10-22T05:16:53;99544.19;;;6.86;68.22
46111;BME280;31849;55.992;37.252;2022-10-22T05:22:00;99541.84;;;7.06;67.57
46111;BME280;31849;55.992;37.252;2022-10-22T05:27:04;99546.88;;;6.95;68.00
46111;BME280;31849;55.992;37.252;2022-10-22T05:32:07;99546.91;;;6.97;67.61
46111;BME280;31849;55.992;37.252;2022-10-22T05:37:12;99555.78;;;7.16;66.94
46111;BME280;31849;55.992;37.252;2022-10-22T05:42:15;99564.16;;;6.96;67.30
46111;BME280;31849;55.992;37.252;2022-10-22T05:47:18;99564.84;;;6.84;67.85
46111;BME280;31849;55.992;37.252;2022-10-22T05:52:23;99570.00;;;6.84;67.88
46111;BME280;31849;55.992;37.252;2022-10-22T05:57:26;99568.38;;;6.93;67.67
46111;BME280;31849;55.992;37.252;2022-10-22T06:02:30;99566.50;;;6.81;68.02
46111;BME280;31849;55.992;37.252;2022-10-22T06:07:35;99564.00;;;6.89;68.04
46111;BME280;31849;55.992;37.252;2022-10-22T06:12:38;99561.44;;;6.89;68.34
46111;BME280;31849;55.992;37.252;2022-10-22T06:17:43;99569.47;;;7.09;67.82
46111;BME280;31849;55.992;37.252;2022-10-22T06:22:48;99559.97;;;7.09;67.56
46111;BME280;31849;55.992;37.252;2022-10-22T06:27:51;99566.06;;;7.11;67.54
46111;BME280;31849;55.992;37.252;2022-10-22T06:32:55;99565.28;;;7.18;67.53
46111;BME280;31849;55.992;37.252;2022-10-22T06:37:59;99574.84;;;7.26;66.94
46111;BME280;31849;55.992;37.252;2022-10-22T06:43:03;99579.22;;;7.30;67.05
46111;BME280;31849;55.992;37.252;2022-10-22T06:48:07;99580.03;;;7.26;66.68
46111;BME280;31849;55.992;37.252;2022-10-22T06:53:11;99590.63;;;7.44;66.54
46111;BME280;31849;55.992;37.252;2022-10-22T06:58:15;99580.44;;;7.60;65.86
46111;BME280;31849;55.992;37.252;2022-10-22T07:03:18;99582.91;;;7.49;66.46
46111;BME280;31849;55.992;37.252;2022-10-22T07:08:23;99576.13;;;7.59;66.44
46111;BME280;31849;55.992;37.252;2022-10-22T07:13:26;99586.41;;;7.54;66.72
46111;BME280;31849;55.992;37.252;2022-10-22T07:18:31;99582.25;;;7.67;65.94
46111;BME280;31849;55.992;37.252;2022-10-22T07:23:36;99588.53;;;7.90;66.11
46111;BME280;31849;55.992;37.252;2022-10-22T07:28:43;99589.53;;;8.02;65.63
46111;BME280;31849;55.992;37.252;2022-10-22T07:33:47;99600.78;;;8.07;65.69
46111;BME280;31849;55.992;37.252;2022-10-22T07:38:55;99600.81;;;8.10;64.66
46111;BME280;31849;55.992;37.252;2022-10-22T07:43:59;99601.66;;;8.09;65.36
46111;BME280;31849;55.992;37.252;2022-10-22T07:49:02;99596.44;;;8.06;65.22
46111;BME280;31849;55.992;37.252;2022-10-22T07:54:08;99594.88;;;8.20;64.32
46111;BME280;31849;55.992;37.252;2022-10-22T07:59:11;99594.88;;;8.22;64.21
46111;BME280;31849;55.992;37.252;2022-10-22T08:04:15;99590.66;;;8.30;64.36
46111;BME280;31849;55.992;37.252;2022-10-22T08:09:21;99599.25;;;8.27;64.05
46111;BME280;31849;55.992;37.252;2022-10-22T08:14:28;99597.44;;;8.16;64.44
46111;BME280;31849;55.992;37.252;2022-10-22T08:19:32;99600.16;;;8.34;63.94
46111;BME280;31849;55.992;37.252;2022-10-22T08:24:38;99606.53;;;8.66;62.94
46111;BME280;31849;55.992;37.252;2022-10-22T08:29:43;99598.59;;;8.45;63.52
46111;BME280;31849;55.992;37.252;2022-10-22T08:34:46;99606.53;;;8.67;63.04
46111;BME280;31849;55.992;37.252;2022-10-22T08:39:52;99570.16;;;8.58;62.84
46111;BME280;31849;55.992;37.252;2022-10-22T08:45:05;99601.28;;;8.59;62.42
46111;BME280;31849;55.992;37.252;2022-10-22T08:50:12;99600.41;;;8.56;62.66
46111;BME280;31849;55.992;37.252;2022-10-22T08:55:22;99597.88;;;8.68;62.48
46111;BME280;31849;55.992;37.252;2022-10-22T09:00:31;99590.91;;;8.59;62.47
46111;BME280;31849;55.992;37.252;2022-10-22T09:05:43;99595.19;;;8.53;63.03
46111;BME280;31849;55.992;37.252;2022-10-22T09:10:54;99587.47;;;8.59;62.84
46111;BME280;31849;55.992;37.252;2022-10-22T09:16:13;99591.25;;;9.06;61.53
46111;BME280;31849;55.992;37.252;2022-10-22T09:21:23;99589.84;;;9.93;59.24
46111;BME280;31849;55.992;37.252;2022-10-22T09:26:31;99589.94;;;10.37;58.74
46111;BME280;31849;55.992;37.252;2022-10-22T09:31:36;99587.25;;;10.02;58.77
46111;BME280;31849;55.992;37.252;2022-10-22T09:36:39;99583.81;;;10.03;58.69
46111;BME280;31849;55.992;37.252;2022-10-22T09:41:44;99588.13;;;9.95;57.82
46111;BME280;31849;55.992;37.252;2022-10-22T09:46:47;99588.91;;;9.67;58.97
46111;BME280;31849;55.992;37.252;2022-10-22T09:51:53;99588.84;;;9.44;58.66
46111;BME280;31849;55.992;37.252;2022-10-22T09:57:03;99580.25;;;9.70;57.40
46111;BME280;31849;55.992;37.252;2022-10-22T10:02:12;99563.84;;;9.70;57.95
46111;BME280;31849;55.992;37.252;2022-10-22T10:07:35;99583.69;;;9.63;58.04
46111;BME280;31849;55.992;37.252;2022-10-22T10:12:44;99583.56;;;9.30;58.77
46111;BME280;31849;55.992;37.252;2022-10-22T10:17:58;99560.16;;;9.12;58.88
46111;BME280;31849;55.992;37.252;2022-10-22T10:23:09;99574.72;;;8.91;59.57
46111;BME280;31849;55.992;37.252;2022-10-22T10:28:31;99570.44;;;9.00;59.92
46111;BME280;31849;55.992;37.252;2022-10-22T10:33:46;99574.91;;;9.22;59.04
46111;BME280;31849;55.992;37.252;2022-10-22T10:38:55;99568.69;;;8.91;59.38
46111;BME280;31849;55.992;37.252;2022-10-22T10:44:27;99562.34;;;8.53;60.36
46111;BME280;31849;55.992;37.252;2022-10-22T10:49:35;99565.75;;;8.46;60.42
46111;BME280;31849;55.992;37.252;2022-10-22T10:54:46;99557.94;;;8.43;59.58
46111;BME280;31849;55.992;37.252;2022-10-22T11:00:01;99546.78;;;8.49;59.63
46111;BME280;31849;55.992;37.252;2022-10-22T11:05:13;99558.09;;;8.60;60.00
46111;BME280;31849;55.992;37.252;2022-10-22T11:10:27;99554.72;;;8.69;59.42
46111;BME280;31849;55.992;37.252;2022-10-22T11:15:35;99539.94;;;8.57;59.71
46111;BME280;31849;55.992;37.252;2022-10-22T11:20:52;99538.91;;;8.41;60.53
46111;BME280;31849;55.992;37.252;2022-10-22T11:25:57;99543.34;;;8.51;60.36
46111;BME280;31849;55.992;37.252;2022-10-22T11:31:07;99524.19;;;8.34;60.68
46111;BME280;31849;55.992;37.252;2022-10-22T11:36:14;99537.97;;;8.31;60.84
46111;BME280;31849;55.992;37.252;2022-10-22T11:41:23;99532.91;;;8.43;59.95
46111;BME280;31849;55.992;37.252;2022-10-22T11:46:38;99527.81;;;8.53;60.17
46111;BME280;31849;55.992;37.252;2022-10-22T11:51:44;99525.91;;;8.32;60.57
46111;BME280;31849;55.992;37.252;2022-10-22T11:56:51;99515.59;;;8.39;60.42
46111;BME280;31849;55.992;37.252;2022-10-22T12:02:01;99513.03;;;8.42;60.90
46111;BME280;31849;55.992;37.252;2022-10-22T12:07:23;99507.94;;;8.53;60.15
46111;BME280;31849;55.992;37.252;2022-10-22T12:12:35;99503.50;;;8.43;60.73
46111;BME280;31849;55.992;37.252;2022-10-22T12:17:42;99499.34;;;8.62;60.71
46111;BME280;31849;55.992;37.252;2022-10-22T12:22:46;99485.44;;;8.48;60.41
46111;BME280;31849;55.992;37.252;2022-10-22T12:27:51;99483.63;;;8.36;60.96
46111;BME280;31849;55.992;37.252;2022-10-22T12:32:58;99490.53;;;8.37;61.25
46111;BME280;31849;55.992;37.252;2022-10-22T12:38:10;99486.38;;;8.57;60.54
46111;BME280;31849;55.992;37.252;2022-10-22T12:43:16;99491.50;;;8.47;61.21
46111;BME280;31849;55.992;37.252;2022-10-22T12:48:23;99476.84;;;8.53;60.54
46111;BME280;31849;55.992;37.252;2022-10-22T12:53:29;99487.16;;;8.47;61.13
46111;BME280;31849;55.992;37.252;2022-10-22T12:58:37;99480.25;;;8.46;60.99
46111;BME280;31849;55.992;37.252;2022-10-22T13:03:46;99480.28;;;8.49;61.27
46111;BME280;31849;55.992;37.252;2022-10-22T13:09:13;99481.03;;;8.37;61.37
46111;BME280;31849;55.992;37.252;2022-10-22T13:14:21;99471.47;;;8.25;62.01
46111;BME280;31849;55.992;37.252;2022-10-22T13:19:44;99472.31;;;8.23;62.16
46111;BME280;31849;55.992;37.252;2022-10-22T13:24:48;99471.28;;;8.04;61.77
46111;BME280;31849;55.992;37.252;2022-10-22T13:29:53;99460.81;;;7.88;61.97
46111;BME280;31849;55.992;37.252;2022-10-22T13:34:59;99463.44;;;7.91;61.76
46111;BME280;31849;55.992;37.252;2022-10-22T13:40:10;99456.38;;;7.75;62.81
46111;BME280;31849;55.992;37.252;2022-10-22T13:45:14;99462.34;;;7.68;62.37
46111;BME280;31849;55.992;37.252;2022-10-22T13:50:20;99459.00;;;7.78;61.86
46111;BME280;31849;55.992;37.252;2022-10-22T13:55:24;99444.25;;;7.69;61.97
46111;BME280;31849;55.992;37.252;2022-10-22T14:00:28;99455.31;;;7.51;62.29
46111;BME280;31849;55.992;37.252;2022-10-22T14:05:33;99443.97;;;7.40;62.59
46111;BME280;31849;55.992;37.252;2022-10-22T14:10:37;99448.31;;;7.41;62.88
46111;BME280;31849;55.992;37.252;2022-10-22T14:15:40;99441.44;;;7.45;62.26
46111;BME280;31849;55.992;37.252;2022-10-22T14:20:45;99446.59;;;7.45;62.91
46111;BME280;31849;55.992;37.252;2022-10-22T14:25:49;99440.50;;;7.36;62.98
46111;BME280;31849;55.992;37.252;2022-10-22T14:30:53;99430.81;;;7.18;64.25
46111;BME280;31849;55.992;37.252;2022-10-22T14:35:59;99428.31;;;7.26;63.98
46111;BME280;31849;55.992;37.252;2022-10-22T14:41:04;99436.91;;;7.24;63.86
46111;BME280;31849;55.992;37.252;2022-10-22T14:46:17;99440.31;;;7.19;63.72
46111;BME280;31849;55.992;37.252;2022-10-22T14:51:22;99440.38;;;7.26;64.10
46111;BME280;31849;55.992;37.252;2022-10-22T14:56:26;99438.50;;;7.14;64.26
46111;BME280;31849;55.992;37.252;2022-10-22T15:01:29;99433.22;;;7.01;65.15
46111;BME280;31849;55.992;37.252;2022-10-22T15:06:34;99442.78;;;7.09;65.58
46111;BME280;31849;55.992;37.252;2022-10-22T15:11:37;99445.16;;;6.92;66.02
46111;BME280;31849;55.992;37.252;2022-10-22T15:16:41;99448.59;;;6.91;65.58
46111;BME280;31849;55.992;37.252;2022-10-22T15:21:45;99440.78;;;6.86;65.88
46111;BME280;31849;55.992;37.252;2022-10-22T15:26:49;99446.91;;;6.93;65.20
46111;BME280;31849;55.992;37.252;2022-10-22T15:31:55;99450.50;;;7.06;64.82
46111;BME280;31849;55.992;37.252;2022-10-22T15:37:03;99453.13;;;7.10;65.10
46111;BME280;31849;55.992;37.252;2022-10-22T15:42:08;99453.94;;;7.06;65.26
46111;BME280;31849;55.992;37.252;2022-10-22T15:47:11;99447.03;;;7.07;65.44
46111;BME280;31849;55.992;37.252;2022-10-22T15:52:16;99451.34;;;7.06;64.88
46111;BME280;31849;55.992;37.252;2022-10-22T15:57:19;99456.47;;;7.00;65.54
46111;BME280;31849;55.992;37.252;2022-10-22T16:02:23;99456.34;;;6.91;66.15
46111;BME280;31849;55.992;37.252;2022-10-22T16:07:28;99453.75;;;6.89;66.18
46111;BME280;31849;55.992;37.252;2022-10-22T16:12:32;99448.53;;;6.84;66.05
46111;BME280;31849;55.992;37.252;2022-10-22T16:17:36;99457.25;;;6.94;65.33
46111;BME280;31849;55.992;37.252;2022-10-22T16:22:41;99457.84;;;6.73;67.03
46111;BME280;31849;55.992;37.252;2022-10-22T16:27:48;99465.66;;;6.76;66.69
46111;BME280;31849;55.992;37.252;2022-10-22T16:32:51;99469.94;;;6.74;66.56
46111;BME280;31849;55.992;37.252;2022-10-22T16:37:57;99455.38;;;6.81;66.55
46111;BME280;31849;55.992;37.252;2022-10-22T16:43:00;99453.50;;;6.71;66.92
46111;BME280;31849;55.992;37.252;2022-10-22T16:48:04;99457.00;;;6.74;66.79
46111;BME280;31849;55.992;37.252;2022-10-22T16:53:09;99452.75;;;6.79;67.36
46111;BME280;31849;55.992;37.252;2022-10-22T16:58:12;99447.59;;;6.79;66.76
46111;BME280;31849;55.992;37.252;2022-10-22T17:03:16;99446.72;;;6.77;67.21
46111;BME280;31849;55.992;37.252;2022-10-22T17:08:21;99440.81;;;6.88;67.10
46111;BME280;31849;55.992;37.252;2022-10-22T17:13:25;99429.44;;;6.73;66.89
46111;BME280;31849;55.992;37.252;2022-10-22T17:18:29;99412.19;;;6.74;66.53
46111;BME280;31849;55.992;37.252;2022-10-22T17:23:34;99420.19;;;6.94;66.94
46111;BME280;31849;55.992;37.252;2022-10-22T17:28:38;99417.53;;;6.86;66.75
46111;BME280;31849;55.992;37.252;2022-10-22T17:33:42;99410.63;;;6.85;66.29
46111;BME280;31849;55.992;37.252;2022-10-22T17:38:49;99417.56;;;6.89;66.58
46111;BME280;31849;55.992;37.252;2022-10-22T17:43:54;99408.88;;;6.84;66.57
46111;BME280;31849;55.992;37.252;2022-10-22T17:48:59;99407.06;;;6.77;67.34
46111;BME280;31849;55.992;37.252;2022-10-22T17:54:05;99407.06;;;6.75;67.44
46111;BME280;31849;55.992;37.252;2022-10-22T17:59:12;99401.00;;;6.73;67.75
46111;BME280;31849;55.992;37.252;2022-10-22T18:04:18;99393.19;;;6.68;67.62
46111;BME280;31849;55.992;37.252;2022-10-22T18:09:24;99390.59;;;6.65;67.67
46111;BME280;31849;55.992;37.252;2022-10-22T18:14:28;99375.00;;;6.58;67.64
46111;BME280;31849;55.992;37.252;2022-10-22T18:19:32;99382.84;;;6.67;67.30
46111;BME280;31849;55.992;37.252;2022-10-22T18:24:37;99372.59;;;6.75;67.50
46111;BME280;31849;55.992;37.252;2022-10-22T18:29:41;99375.91;;;6.64;68.02
46111;BME280;31849;55.992;37.252;2022-10-22T18:34:44;99373.28;;;6.58;68.08
46111;BME280;31849;55.992;37.252;2022-10-22T18:39:50;99369.94;;;6.67;67.67
46111;BME280;31849;55.992;37.252;2022-10-22T18:44:53;99366.28;;;6.49;67.68
46111;BME280;31849;55.992;37.252;2022-10-22T18:49:57;99358.50;;;6.48;68.26
46111;BME280;31849;55.992;37.252;2022-10-22T18:55:02;99353.47;;;6.60;68.13
46111;BME280;31849;55.992;37.252;2022-10-22T19:00:07;99354.09;;;6.39;68.40
46111;BME280;31849;55.992;37.252;2022-10-22T19:05:11;99348.91;;;6.39;68.60
46111;BME280;31849;55.992;37.252;2022-10-22T19:10:16;99354.94;;;6.40;68.58
46111;BME280;31849;55.992;37.252;2022-10-22T19:15:19;99350.56;;;6.31;68.55
46111;BME280;31849;55.992;37.252;2022-10-22T19:20:23;99343.75;;;6.38;68.14
46111;BME280;31849;55.992;37.252;2022-10-22T19:25:28;99347.25;;;6.43;68.63
46111;BME280;31849;55.992;37.252;2022-10-22T19:30:31;99351.41;;;6.30;68.71
46111;BME280;31849;55.992;37.252;2022-10-22T19:35:35;99350.50;;;6.29;68.52
46111;BME280;31849;55.992;37.252;2022-10-22T19:40:41;99351.53;;;6.41;67.87
46111;BME280;31849;55.992;37.252;2022-10-22T19:45:44;99349.78;;;6.40;68.63
46111;BME280;31849;55.992;37.252;2022-10-22T19:50:48;99352.34;;;6.38;68.70
46111;BME280;31849;55.992;37.252;2022-10-22T19:55:53;99351.50;;;6.39;68.11
46111;BME280;31849;55.992;37.252;2022-10-22T20:01:02;99353.16;;;6.32;68.77
46111;BME280;31849;55.992;37.252;2022-10-22T20:06:08;99352.28;;;6.32;68.81
46111;BME280;31849;55.992;37.252;2022-10-22T20:11:21;99335.06;;;6.31;68.87
46111;BME280;31849;55.992;37.252;2022-10-22T20:16:26;99352.28;;;6.33;69.00
46111;BME280;31849;55.992;37.252;2022-10-22T20:21:31;99344.38;;;6.20;68.79
46111;BME280;31849;55.992;37.252;2022-10-22T20:26:37;99332.41;;;6.26;69.09
46111;BME280;31849;55.992;37.252;2022-10-22T20:31:41;99329.81;;;6.28;68.50
46111;BME280;31849;55.992;37.252;2022-10-22T20:36:44;99335.09;;;6.34;67.80
46111;BME280;31849;55.992;37.252;2022-10-22T20:41:50;99334.97;;;6.25;68.90
46111;BME280;31849;55.992;37.252;2022-10-22T20:46:53;99329.91;;;6.31;68.75
46111;BME280;31849;55.992;37.252;2022-10-22T20:51:57;99323.78;;;6.26;68.48
46111;BME280;31849;55.992;37.252;2022-10-22T20:57:03;99325.44;;;6.18;68.67
46111;BME280;31849;55.992;37.252;2022-10-22T21:02:08;99329.72;;;6.20;69.54
46111;BME280;31849;55.992;37.252;2022-10-22T21:07:12;99334.91;;;6.22;68.35
46111;BME280;31849;55.992;37.252;2022-10-22T21:12:16;99328.09;;;6.25;68.66
46111;BME280;31849;55.992;37.252;2022-10-22T21:17:20;99320.97;;;6.06;69.22
46111;BME280;31849;55.992;37.252;2022-10-22T21:22:23;99314.00;;;6.00;69.44
46111;BME280;31849;55.992;37.252;2022-10-22T21:27:28;99309.78;;;6.07;68.89
46111;BME280;31849;55.992;37.252;2022-10-22T21:32:32;99308.09;;;6.09;68.60
46111;BME280;31849;55.992;37.252;2022-10-22T21:37:35;99299.50;;;6.11;68.41
46111;BME280;31849;55.992;37.252;2022-10-22T21:42:41;99295.16;;;6.07;68.63
46111;BME280;31849;55.992;37.252;2022-10-22T21:47:44;99282.34;;;6.15;68.90
46111;BME280;31849;55.992;37.252;2022-10-22T21:52:48;99280.66;;;6.17;67.83
46111;BME280;31849;55.992;37.252;2022-10-22T21:57:53;99268.63;;;6.18;68.27
46111;BME280;31849;55.992;37.252;2022-10-22T22:02:56;99265.06;;;6.08;68.61
46111;BME280;31849;55.992;37.252;2022-10-22T22:08:00;99266.03;;;6.18;68.15
46111;BME280;31849;55.992;37.252;2022-10-22T22:13:04;99252.97;;;6.05;68.68
46111;BME280;31849;55.992;37.252;2022-10-22T22:18:08;99253.94;;;6.13;67.89
46111;BME280;31849;55.992;37.252;2022-10-22T22:23:11;99261.72;;;6.16;68.84
46111;BME280;31849;55.992;37.252;2022-10-22T22:28:16;99249.63;;;6.14;68.92
46111;BME280;31849;55.992;37.252;2022-10-22T22:33:20;99242.63;;;6.04;68.51
46111;BME280;31849;55.992;37.252;2022-10-22T22:38:23;99233.13;;;6.03;68.36
46111;BME280;31849;55.992;37.252;2022-10-22T22:43:28;99222.91;;;6.07;68.29
46111;BME280;31849;55.992;37.252;2022-10-22T22:48:32;99222.03;;;6.10;68.24
46111;BME280;31849;55.992;37.252;2022-10-22T22:53:35;99217.78;;;6.10;68.25
46111;BME280;31849;55.992;37.252;2022-10-22T22:58:41;99212.63;;;6.13;68.39
46111;BME280;31849;55.992;37.252;2022-10-22T23:03:46;99212.56;;;6.07;68.57
46111;BME280;31849;55.992;37.252;2022-10-22T23:08:50;99197.88;;;6.03;68.72
46111;BME280;31849;55.992;37.252;2022-10-22T23:13:56;99189.22;;;5.99;68.29
46111;BME280;31849;55.992;37.252;2022-10-22T23:19:00;99184.00;;;5.96;68.83
46111;BME280;31849;55.992;37.252;2022-10-22T23:24:06;99185.81;;;6.02;68.04
46111;BME280;31849;55.992;37.252;2022-10-22T23:29:14;99179.03;;;6.07;68.13
46111;BME280;31849;55.992;37.252;2022-10-22T23:34:20;99172.16;;;6.09;67.92
46111;BME280;31849;55.992;37.252;2022-10-22T23:39:25;99174.66;;;6.03;68.11
46111;BME280;31849;55.992;37.252;2022-10-22T23:44:29;99164.31;;;6.02;67.32
46111;BME280;31849;55.992;37.252;2022-10-22T23:49:33;99165.88;;;5.92;68.11
46111;BME280;31849;55.992;37.252;2022-10-22T23:54:36;99159.88;;;5.93;68.45
46111;BME280;31849;55.992;37.252;2022-10-22T23:59:41;99147.78;;;5.89;68.54
